No particular awareness of the weather is required.    There are no Weather-warnings


Meteo18 Weather Cam more information Meteo18 Weather Cam


Thunder radar more information blitzortung!


Rain radar more information rain snow radar


Visit our other weather sites:

Template documentation
and downloads

And another site



Weather Underground History page Text

Daily Summary for June 25, 2017 Units:  English    Metric   Both
« Previous Day
Next Day »
Daily Weekly Monthly Yearly Custom
  High: Low: Average:
Temperature: 78.1 °F 55.8 °F 67.5 °F
Dew Point: 61 °F 51.3 °F 57.2 °F
Humidity: 85 % 53 % 71 %
Wind Speed: 12 mph 0 mph 3.3 mph
Wind Gust: 16 mph - -
Wind:- - WSW
Pressure: 30.1 in 30 in -
Precipitation: 0 in    
Historical Graphs
 
 
Tabular Data for June 25, 2017
Time Temperature Dew Point Pressure Wind Wind Speed Wind Gust Humidity Rainfall Rate (Hourly)
00:02 63.7 °F 54.9 °F 30.1 in Calm   1 mph 73 % 0 in
00:12 63.1 °F 54.7 °F 30.1 in Calm     74 % 0 in
00:17 63 °F 54.5 °F 30.1 in Calm     74 % 0 in
00:22 62.8 °F 54.3 °F 30.1 in Calm     74 % 0 in
00:27 62.4 °F 54.3 °F 30.1 in Calm     75 % 0 in
00:32 62.2 °F 54.1 °F 30.1 in Calm     75 % 0 in
00:37 62.4 °F 54.3 °F 30.1 in SSW 2 mph   75 % 0 in
00:42 63.7 °F 55.2 °F 30.1 in SW 3 mph 3 mph 74 % 0 in
00:52 64.9 °F 54.9 °F 30.1 in WSW 2 mph 5 mph 70 % 0 in
01:02 65.5 °F 55 °F 30.1 in West 4 mph 5 mph 69 % 0 in
01:07 65.5 °F 55 °F 30.1 in West 3 mph 5 mph 69 % 0 in
01:12 65.3 °F 54.9 °F 30.1 in West 1 mph 5 mph 69 % 0 in
01:17 65.5 °F 55 °F 30.1 in West 2 mph 5 mph 69 % 0 in
01:22 65.5 °F 55 °F 30.1 in WNW 1 mph 5 mph 69 % 0 in
01:32 65.8 °F 55 °F 30.1 in West 1 mph 6 mph 68 % 0 in
01:42 65.7 °F 54.3 °F 30.1 in WNW 2 mph 5 mph 67 % 0 in
01:52 65.8 °F 54.1 °F 30.1 in WNW 3 mph 6 mph 66 % 0 in
02:02 66 °F 54 °F 30.1 in West 7 mph 8 mph 65 % 0 in
02:07 66.2 °F 54.1 °F 30.1 in WNW 3 mph 14 mph 65 % 0 in
02:12 66 °F 54 °F 30.1 in WSW 4 mph 14 mph 65 % 0 in
02:22 65.7 °F 54 °F 30.1 in WNW 5 mph 11 mph 66 % 0 in
02:27 65.7 °F 54 °F 30.1 in West 3 mph 9 mph 66 % 0 in
02:32 65.3 °F 54.1 °F 30.1 in WNW 2 mph 9 mph 67 % 0 in
02:42 64.9 °F 54.1 °F 30.1 in West 4 mph 9 mph 68 % 0 in
02:47 64.9 °F 54.1 °F 30.1 in West 7 mph 9 mph 68 % 0 in
02:52 64.8 °F 54 °F 30.1 in West 6 mph 9 mph 68 % 0 in
02:57 64.6 °F 53.8 °F 30.1 in WSW 3 mph 9 mph 68 % 0 in
03:02 64.4 °F 53.6 °F 30.1 in West 2 mph 9 mph 68 % 0 in
03:07 64 °F 53.6 °F 30.1 in West 3 mph 7 mph 69 % 0 in
03:12 63.9 °F 54 °F 30.1 in WSW 4 mph 7 mph 70 % 0 in
03:22 63.3 °F 53.4 °F 30.1 in West 5 mph 5 mph 70 % 0 in
03:32 63.1 °F 53.6 °F 30.1 in West 2 mph 6 mph 71 % 0 in
03:42 63 °F 53.4 °F 30.1 in WSW 1 mph 6 mph 71 % 0 in
03:47 62.6 °F 53.4 °F 30.1 in West 1 mph 6 mph 72 % 0 in
03:52 62.4 °F 53.6 °F 30.1 in SW 3 mph 6 mph 73 % 0 in
03:57 62.2 °F 53.4 °F 30.1 in West 1 mph 4 mph 73 % 0 in
04:02 61.9 °F 53.4 °F 30.1 in West 2 mph 4 mph 74 % 0 in
04:07 61.5 °F 53.2 °F 30.1 in West 1 mph 4 mph 74 % 0 in
04:12 61.5 °F 53.2 °F 30.1 in WNW 5 mph 5 mph 74 % 0 in
04:17 61.3 °F 53.4 °F 30.1 in WSW 4 mph 5 mph 75 % 0 in
04:27 61.2 °F 53.2 °F 30.1 in WSW 1 mph 5 mph 75 % 0 in
04:32 61 °F 53.4 °F 30.1 in WSW 2 mph 5 mph 76 % 0 in
04:37 60.4 °F 52.9 °F 30.1 in WSW 2 mph 4 mph 76 % 0 in
04:42 60.3 °F 53.1 °F 30.1 in SW 1 mph 4 mph 77 % 0 in
04:47 60.1 °F 52.9 °F 30.1 in SSW 2 mph 6 mph 77 % 0 in
04:52 59.9 °F 53.1 °F 30.1 in SSW 2 mph 6 mph 78 % 0 in
05:02 59.4 °F 52.5 °F 30.1 in SW 3 mph 5 mph 78 % 0 in
05:12 59.4 °F 52.9 °F 30.1 in SW 2 mph 7 mph 79 % 0 in
05:22 58.5 °F 52.7 °F 30.1 in SSW 4 mph 7 mph 81 % 0 in
05:32 58.3 °F 52.9 °F 30.1 in SW 1 mph 6 mph 82 % 0 in
05:42 57.9 °F 52.5 °F 30.1 in West 2 mph 6 mph 82 % 0 in
05:52 57.6 °F 52.2 °F 30.1 in Calm   5 mph 82 % 0 in
06:02 57.4 °F 52.3 °F 30.1 in SW 4 mph 4 mph 83 % 0 in
06:07 57.2 °F 52.2 °F 30.1 in WSW 4 mph 5 mph 83 % 0 in
06:12 57 °F 52 °F 30.1 in WSW 1 mph 5 mph 83 % 0 in
06:17 56.8 °F 52 °F 30.1 in Calm   5 mph 84 % 0 in
06:22 56.7 °F 51.8 °F 30.1 in Calm   5 mph 84 % 0 in
06:32 55.9 °F 51.4 °F 30.1 in SE 1 mph 4 mph 85 % 0 in
06:37 55.8 °F 51.3 °F 30.1 in Calm   2 mph 85 % 0 in
06:42 56.1 °F 51.6 °F 30.1 in South 1 mph 2 mph 85 % 0 in
06:47 56.5 °F 52 °F 30.1 in SW 2 mph 3 mph 85 % 0 in
06:57 56.8 °F 52 °F 30.1 in SW 2 mph 3 mph 84 % 0 in
07:07 57 °F 52.5 °F 30.1 in SSW 1 mph 4 mph 85 % 0 in
07:12 57.6 °F 53.1 °F 30.1 in SSW 3 mph 4 mph 85 % 0 in
07:17 58.3 °F 53.8 °F 30.1 in SSW 3 mph 4 mph 85 % 0 in
07:22 58.8 °F 54 °F 30.1 in SW 5 mph 5 mph 84 % 0 in
07:32 59.5 °F 54 °F 30.1 in WSW 4 mph 7 mph 82 % 0 in
07:37 59.7 °F 54.1 °F 30.1 in WSW 7 mph 10 mph 82 % 0 in
07:42 59.7 °F 54.1 °F 30.1 in WSW 4 mph 10 mph 82 % 0 in
07:52 59.7 °F 54.1 °F 30.1 in SW 8 mph 11 mph 82 % 0 in
08:02 60.1 °F 54.5 °F 30.1 in SW 11 mph 12 mph 82 % 0 in
08:07 60.3 °F 55 °F 30.1 in WSW 6 mph 12 mph 83 % 0 in
08:12 60.4 °F 54.9 °F 30.1 in WSW 5 mph 12 mph 82 % 0 in
08:17 60.4 °F 55.2 °F 30.1 in WSW 3 mph 12 mph 83 % 0 in
08:22 60.8 °F 55.2 °F 30.1 in West 9 mph 12 mph 82 % 0 in
08:32 61.2 °F 55.9 °F 30.1 in SW 5 mph 15 mph 83 % 0 in
08:37 61.5 °F 55.9 °F 30.1 in West 4 mph 12 mph 82 % 0 in
08:42 61.9 °F 55.9 °F 30.1 in WSW 3 mph 12 mph 81 % 0 in
08:47 62.2 °F 56.3 °F 30.1 in West 5 mph 12 mph 81 % 0 in
08:52 62.4 °F 56.1 °F 30.1 in WSW 4 mph 12 mph 80 % 0 in
09:02 63.1 °F 57.2 °F 30.1 in SSW 2 mph 12 mph 81 % 0 in
09:12 63.3 °F 56.7 °F 30.1 in SW 5 mph 13 mph 79 % 0 in
09:22 63.1 °F 56.5 °F 30.1 in WSW 5 mph 11 mph 79 % 0 in
09:32 63.3 °F 56.3 °F 30.1 in WSW 3 mph 10 mph 78 % 0 in
09:37 63.5 °F 56.5 °F 30.1 in SW 5 mph 11 mph 78 % 0 in
09:42 63.7 °F 56.3 °F 30.1 in WSW 7 mph 11 mph 77 % 0 in
09:47 63.7 °F 56.7 °F 30.1 in SSW 6 mph 11 mph 78 % 0 in
09:52 64 °F 57 °F 30.1 in SW 6 mph 11 mph 78 % 0 in
10:02 64.2 °F 56.5 °F 30.1 in WNW 5 mph 11 mph 76 % 0 in
10:12 64.4 °F 56.3 °F 30.1 in West 4 mph 13 mph 75 % 0 in
10:17 64.4 °F 56.3 °F 30.1 in West 10 mph 16 mph 75 % 0 in
10:22 64.6 °F 56.8 °F 30.1 in West 6 mph 16 mph 76 % 0 in
10:32 64.8 °F 57 °F 30.1 in WSW 3 mph 16 mph 76 % 0 in
10:37 64.6 °F 56.8 °F 30.1 in West 9 mph 13 mph 76 % 0 in
10:42 64.6 °F 57.2 °F 30.1 in West 4 mph 13 mph 77 % 0 in
10:47 64.9 °F 57.9 °F 30.1 in West 3 mph 13 mph 78 % 0 in
10:52 64.9 °F 57.9 °F 30.1 in WSW 11 mph 13 mph 78 % 0 in
11:02 64.6 °F 58.3 °F 30.1 in West 4 mph 11 mph 80 % 0 in
11:12 64.6 °F 58.3 °F 30.1 in WSW 9 mph 11 mph 80 % 0 in
11:17 64.2 °F 58.3 °F 30.1 in WSW 12 mph 12 mph 81 % 0 in
11:22 64 °F 58.5 °F 30.1 in West 6 mph 12 mph 82 % 0 in
11:32 64.6 °F 58.3 °F 30.1 in WSW 5 mph 12 mph 80 % 0 in
11:37 64.8 °F 58.5 °F 30.1 in WNW 4 mph 10 mph 80 % 0 in
11:42 64.8 °F 58.8 °F 30.1 in West 7 mph 10 mph 81 % 0 in
11:52 64.9 °F 58.6 °F 30.1 in SW 4 mph 12 mph 80 % 0 in
12:02 65.3 °F 59 °F 30.1 in SW 8 mph 12 mph 80 % 0 in
12:07 65.8 °F 59.5 °F 30.1 in SSW 2 mph 12 mph 80 % 0 in
12:12 65.8 °F 59.2 °F 30.1 in SSW 6 mph 12 mph 79 % 0 in
12:17 66 °F 59.4 °F 30.1 in WSW 5 mph 11 mph 79 % 0 in
12:22 66.4 °F 59.4 °F 30.1 in SW 6 mph 11 mph 78 % 0 in
12:32 66.4 °F 59.4 °F 30.1 in WSW 2 mph 11 mph 78 % 0 in
12:42 66.9 °F 59.9 °F 30.1 in SW 5 mph 11 mph 78 % 0 in
12:52 67.1 °F 60.1 °F 30.1 in SW 8 mph 11 mph 78 % 0 in
13:02 67.8 °F 59.9 °F 30.1 in SSW 3 mph 12 mph 76 % 0 in
13:12 68.4 °F 60.4 °F 30.1 in West 5 mph 11 mph 76 % 0 in
13:17 68.4 °F 60.1 °F 30.1 in West 4 mph 11 mph 75 % 0 in
13:22 68.5 °F 60.6 °F 30.1 in West 7 mph 11 mph 76 % 0 in
13:32 69.1 °F 60.4 °F 30.1 in West 6 mph 11 mph 74 % 0 in
13:37 69.3 °F 61 °F 30.1 in WSW 3 mph 11 mph 75 % 0 in
13:42 69.6 °F 60.3 °F 30.1 in West 5 mph 11 mph 72 % 0 in
13:47 69.4 °F 60.1 °F 30.1 in SW 7 mph 11 mph 72 % 0 in
13:52 69.6 °F 59.7 °F 30.1 in West 3 mph 14 mph 71 % 0 in
13:57 69.4 °F 60.1 °F 30.1 in WSW 7 mph 14 mph 72 % 0 in
14:02 69.3 °F 60.3 °F 30.1 in SW 3 mph 10 mph 73 % 0 in
14:12 69.6 °F 60.3 °F 30.1 in SW 6 mph 11 mph 72 % 0 in
14:17 70 °F 59.7 °F 30.1 in WSW 7 mph 11 mph 70 % 0 in
14:22 70.2 °F 59.5 °F 30.1 in WSW 5 mph 11 mph 69 % 0 in
14:27 70.9 °F 59.7 °F 30.1 in WSW 4 mph 13 mph 68 % 0 in
14:32 71.1 °F 60.4 °F 30.1 in West 4 mph 13 mph 69 % 0 in
14:37 71.1 °F 59.9 °F 30.1 in WNW 4 mph 12 mph 68 % 0 in
14:42 71.1 °F 59.9 °F 30.1 in SW 7 mph 12 mph 68 % 0 in
14:47 71.2 °F 60.1 °F 30.1 in West 7 mph 12 mph 68 % 0 in
14:52 71.2 °F 60.1 °F 30.1 in West 3 mph 12 mph 68 % 0 in
14:57 71.2 °F 60.1 °F 30.1 in WNW 2 mph 11 mph 68 % 0 in
15:02 71.4 °F 59.9 °F 30.1 in WNW 5 mph 11 mph 67 % 0 in
15:12 72 °F 60.4 °F 30.1 in NNW 2 mph 9 mph 67 % 0 in
15:17 72.3 °F 59.9 °F 30.1 in WNW 4 mph 8 mph 65 % 0 in
15:22 72 °F 59.5 °F 30.1 in West 5 mph 8 mph 65 % 0 in
15:27 72.3 °F 60.3 °F 30.1 in West 6 mph 11 mph 66 % 0 in
15:32 73.2 °F 60.8 °F 30.1 in West 8 mph 11 mph 65 % 0 in
15:42 73.2 °F 59.9 °F 30.1 in WNW 7 mph 11 mph 63 % 0 in
15:47 73.6 °F 59.7 °F 30.1 in WSW 8 mph 11 mph 62 % 0 in
15:52 73.6 °F 59.7 °F 30.1 in West 6 mph 11 mph 62 % 0 in
15:57 73.2 °F 60.3 °F 30.1 in WNW 5 mph 10 mph 64 % 0 in
16:02 73.6 °F 59.7 °F 30.1 in WSW 2 mph 10 mph 62 % 0 in
16:12 73.8 °F 59.5 °F 30.1 in WSW 5 mph 9 mph 61 % 0 in
16:17 73.8 °F 59.9 °F 30.1 in WSW 3 mph 10 mph 62 % 0 in
16:22 74.1 °F 59.4 °F 30.1 in WSW 7 mph 10 mph 60 % 0 in
16:27 74.3 °F 58.6 °F 30.1 in WNW 5 mph 12 mph 58 % 0 in
16:32 74.5 °F 58.8 °F 30.1 in West 5 mph 12 mph 58 % 0 in
16:42 75.6 °F 57.2 °F 30.1 in WNW 4 mph 14 mph 53 % 0 in
16:52 75.9 °F 58.6 °F 30.1 in WNW 8 mph 12 mph 55 % 0 in
16:57 76.1 °F 57.7 °F 30.1 in WSW 2 mph 15 mph 53 % 0 in
17:02 76.1 °F 58.3 °F 30.1 in West 6 mph 15 mph 54 % 0 in
17:12 75.4 °F 58.6 °F 30.1 in SSW 3 mph 15 mph 56 % 0 in
17:17 75 °F 58.8 °F 30.1 in WSW 4 mph 13 mph 57 % 0 in
17:22 75.4 °F 59 °F 30.1 in WNW 2 mph 13 mph 57 % 0 in
17:27 75.7 °F 59.4 °F 30.1 in West 5 mph 8 mph 57 % 0 in
17:32 75.6 °F 58.8 °F 30.1 in WNW 6 mph 8 mph 56 % 0 in
17:37 75.7 °F 59.4 °F 30.1 in WNW 4 mph 12 mph 57 % 0 in
17:42 76.3 °F 59 °F 30.1 in WSW 5 mph 12 mph 55 % 0 in
17:52 76.6 °F 59.2 °F 30.1 in WNW 3 mph 12 mph 55 % 0 in
17:57 76.3 °F 58.5 °F 30.1 in WNW 6 mph 11 mph 54 % 0 in
18:02 75.9 °F 58.6 °F 30.1 in NW 3 mph 11 mph 55 % 0 in
18:12 76.8 °F 59.9 °F 30.1 in West 2 mph 11 mph 56 % 0 in
18:17 77.2 °F 59.2 °F 30.1 in West 2 mph 9 mph 54 % 0 in
18:22 77 °F 59 °F 30.1 in West 4 mph 9 mph 54 % 0 in
18:32 76.1 °F 59.7 °F 30 in WSW 2 mph 9 mph 57 % 0 in
18:42 77.2 °F 59.7 °F 30 in West 1 mph 7 mph 55 % 0 in
18:47 77.5 °F 59.5 °F 30 in WNW 4 mph 7 mph 54 % 0 in
18:57 76.3 °F 59.4 °F 30 in West 4 mph 11 mph 56 % 0 in
19:02 75.9 °F 59.5 °F 30.1 in SW 4 mph 11 mph 57 % 0 in
19:12 75.6 °F 59.7 °F 30 in SW 2 mph 11 mph 58 % 0 in
19:22 76.8 °F 61 °F 30 in SW 3 mph 7 mph 58 % 0 in
19:27 76.8 °F 60.4 °F 30 in SW 5 mph 6 mph 57 % 0 in
19:32 76.3 °F 59.9 °F 30 in WSW 5 mph 6 mph 57 % 0 in
19:42 76.8 °F 60.4 °F 30 in SW 1 mph 6 mph 57 % 0 in
19:47 77.2 °F 60.3 °F 30 in SW 5 mph 6 mph 56 % 0 in
19:57 77.2 °F 60.8 °F 30 in SW 4 mph 6 mph 57 % 0 in
20:02 77.4 °F 60.4 °F 30 in WSW 1 mph 6 mph 56 % 0 in
20:12 77.4 °F 59.9 °F 30 in WSW 2 mph 6 mph 55 % 0 in
20:17 77.5 °F 60.6 °F 30 in WNW 2 mph 7 mph 56 % 0 in
20:27 77.5 °F 60.1 °F 30 in West 3 mph 4 mph 55 % 0 in
20:32 77.2 °F 60.3 °F 30 in NW 1 mph 4 mph 56 % 0 in
20:42 77.4 °F 60.4 °F 30 in Calm   4 mph 56 % 0 in
20:47 78.1 °F 60.6 °F 30 in WNW 1 mph 5 mph 55 % 0 in
20:52 77.7 °F 60.3 °F 30 in Calm   5 mph 55 % 0 in
20:57 77.5 °F 60.1 °F 30 in Calm   2 mph 55 % 0 in
21:02 77.9 °F 60.4 °F 30 in Calm   2 mph 55 % 0 in
21:12 77.5 °F 60.1 °F 30 in Calm   2 mph 55 % 0 in
21:17 77.4 °F 60.4 °F 30 in Calm   1 mph 56 % 0 in
21:27 76.5 °F 60.6 °F 30 in Calm   1 mph 58 % 0 in
21:32 75.6 °F 60.3 °F 30 in Calm   1 mph 59 % 0 in
21:37 74.8 °F 60.1 °F 30 in Calm   2 mph 60 % 0 in
21:42 74.3 °F 59.9 °F 30 in Calm   2 mph 61 % 0 in
21:47 73.6 °F 60.3 °F 30 in Calm   2 mph 63 % 0 in
21:52 72.5 °F 59.5 °F 30 in Calm   1 mph 64 % 0 in
21:57 71.8 °F 59.7 °F 30 in Calm     66 % 0 in
22:02 71.1 °F 59.5 °F 30 in Calm     67 % 0 in
22:12 70 °F 59.4 °F 30 in Calm     69 % 0 in
22:17 69.6 °F 59.7 °F 30 in Calm   1 mph 71 % 0 in
22:22 69.1 °F 59.4 °F 30 in Calm   1 mph 71 % 0 in
22:27 68.5 °F 59.2 °F 30 in Calm     72 % 0 in
22:32 68.5 °F 59.5 °F 30 in Calm     73 % 0 in
22:37 68.2 °F 59.2 °F 30 in Calm     73 % 0 in
22:42 67.8 °F 58.8 °F 30 in Calm     73 % 0 in
22:47 67.6 °F 59 °F 30 in Calm     74 % 0 in
22:52 67.1 °F 58.8 °F 30 in Calm     75 % 0 in
22:57 66.9 °F 59.2 °F 30 in Calm     76 % 0 in
23:02 66.7 °F 59.4 °F 30 in Calm     77 % 0 in
23:12 66.4 °F 59.4 °F 30 in Calm     78 % 0 in
23:17 65.8 °F 59.2 °F 30 in Calm     79 % 0 in
23:22 65.5 °F 58.8 °F 30 in Calm     79 % 0 in
23:27 65.5 °F 59.2 °F 30 in Calm     80 % 0 in
23:32 65.5 °F 59.2 °F 30 in Calm     80 % 0 in
23:37 65.1 °F 58.8 °F 30 in Calm     80 % 0 in
23:42 65.1 °F 58.8 °F 30 in Calm     80 % 0 in
23:52 64.2 °F 58.3 °F 30 in Calm     81 % 0 in
Meteo18
Compliments of Weather Underground - 4 mb

Script developed by  Jim McMurry - jmcmurry@mwt.net Adapted for the template by  Wim van der Kuil - Leuven-Template.eu

You find our weather info also at:

European Weather Network

Weather Underground

Equipment we use:

Weather-station
Davis Vue

Weather-program
Meteohub

Weather-server
Raspberry PI 2 B+

Provider
1 and 1

Davis Vue

Meteohub

Raspberry PI 2 B+

1 and 1